sensor_id;sensor_type;location;lat;lon;timestamp;P1;durP1;ratioP1;P2;durP2;ratioP2
9852;SDS011;4965;43.238;27.864;2022-08-07T00:02:21;14.18;;;12.65;;
9852;SDS011;4965;43.238;27.864;2022-08-07T00:04:48;13.93;;;12.40;;
9852;SDS011;4965;43.238;27.864;2022-08-07T00:07:15;14.13;;;12.63;;
9852;SDS011;4965;43.238;27.864;2022-08-07T00:09:43;17.13;;;12.80;;
9852;SDS011;4965;43.238;27.864;2022-08-07T00:12:09;14.27;;;12.80;;
9852;SDS011;4965;43.238;27.864;2022-08-07T00:14:38;13.88;;;12.57;;
9852;SDS011;4965;43.238;27.864;2022-08-07T00:17:04;14.68;;;13.23;;
9852;SDS011;4965;43.238;27.864;2022-08-07T00:19:32;15.20;;;13.60;;
9852;SDS011;4965;43.238;27.864;2022-08-07T00:21:59;15.10;;;13.60;;
9852;SDS011;4965;43.238;27.864;2022-08-07T00:24:26;16.63;;;13.93;;
9852;SDS011;4965;43.238;27.864;2022-08-07T00:26:52;16.60;;;13.43;;
9852;SDS011;4965;43.238;27.864;2022-08-07T00:29:21;14.98;;;13.13;;
9852;SDS011;4965;43.238;27.864;2022-08-07T00:31:51;14.38;;;12.63;;
9852;SDS011;4965;43.238;27.864;2022-08-07T00:34:19;15.07;;;13.48;;
9852;SDS011;4965;43.238;27.864;2022-08-07T00:36:46;17.90;;;13.50;;
9852;SDS011;4965;43.238;27.864;2022-08-07T00:39:13;15.98;;;14.38;;
9852;SDS011;4965;43.238;27.864;2022-08-07T00:41:46;15.15;;;13.43;;
9852;SDS011;4965;43.238;27.864;2022-08-07T00:44:14;15.48;;;13.88;;
9852;SDS011;4965;43.238;27.864;2022-08-07T00:46:41;15.93;;;13.30;;
9852;SDS011;4965;43.238;27.864;2022-08-07T00:49:09;15.25;;;13.65;;
9852;SDS011;4965;43.238;27.864;2022-08-07T00:51:36;15.98;;;14.07;;
9852;SDS011;4965;43.238;27.864;2022-08-07T00:54:03;15.48;;;13.88;;
9852;SDS011;4965;43.238;27.864;2022-08-07T00:56:31;17.67;;;13.13;;
9852;SDS011;4965;43.238;27.864;2022-08-07T00:58:59;17.67;;;15.40;;
9852;SDS011;4965;43.238;27.864;2022-08-07T01:01:26;16.25;;;14.43;;
9852;SDS011;4965;43.238;27.864;2022-08-07T01:03:53;17.55;;;14.55;;
9852;SDS011;4965;43.238;27.864;2022-08-07T01:06:22;16.48;;;14.85;;
9852;SDS011;4965;43.238;27.864;2022-08-07T01:08:49;24.63;;;15.23;;
9852;SDS011;4965;43.238;27.864;2022-08-07T01:11:16;19.38;;;14.85;;
9852;SDS011;4965;43.238;27.864;2022-08-07T01:13:44;19.58;;;15.23;;
9852;SDS011;4965;43.238;27.864;2022-08-07T01:16:11;16.83;;;15.05;;
9852;SDS011;4965;43.238;27.864;2022-08-07T01:18:39;17.17;;;14.63;;
9852;SDS011;4965;43.238;27.864;2022-08-07T01:21:11;18.00;;;15.30;;
9852;SDS011;4965;43.238;27.864;2022-08-07T01:23:39;19.20;;;15.20;;
9852;SDS011;4965;43.238;27.864;2022-08-07T01:26:08;16.70;;;14.10;;
9852;SDS011;4965;43.238;27.864;2022-08-07T01:28:37;17.50;;;15.30;;
9852;SDS011;4965;43.238;27.864;2022-08-07T01:31:04;17.40;;;14.80;;
9852;SDS011;4965;43.238;27.864;2022-08-07T01:33:32;17.00;;;15.23;;
9852;SDS011;4965;43.238;27.864;2022-08-07T01:35:59;16.92;;;15.18;;
9852;SDS011;4965;43.238;27.864;2022-08-07T01:38:29;17.73;;;13.75;;
9852;SDS011;4965;43.238;27.864;2022-08-07T01:40:57;20.30;;;14.77;;
9852;SDS011;4965;43.238;27.864;2022-08-07T01:43:26;16.20;;;14.57;;
9852;SDS011;4965;43.238;27.864;2022-08-07T01:45:54;16.38;;;14.68;;
9852;SDS011;4965;43.238;27.864;2022-08-07T01:48:23;19.35;;;15.23;;
9852;SDS011;4965;43.238;27.864;2022-08-07T01:50:52;20.85;;;16.15;;
9852;SDS011;4965;43.238;27.864;2022-08-07T01:53:22;22.33;;;17.08;;
9852;SDS011;4965;43.238;27.864;2022-08-07T01:55:54;19.92;;;16.35;;
9852;SDS011;4965;43.238;27.864;2022-08-07T01:58:24;20.95;;;17.70;;
9852;SDS011;4965;43.238;27.864;2022-08-07T02:00:57;20.50;;;17.10;;
9852;SDS011;4965;43.238;27.864;2022-08-07T02:03:28;20.25;;;18.02;;
9852;SDS011;4965;43.238;27.864;2022-08-07T02:05:59;23.25;;;18.25;;
9852;SDS011;4965;43.238;27.864;2022-08-07T02:08:31;22.95;;;18.88;;
9852;SDS011;4965;43.238;27.864;2022-08-07T02:11:06;20.92;;;17.40;;
9852;SDS011;4965;43.238;27.864;2022-08-07T02:13:35;20.23;;;16.50;;
9852;SDS011;4965;43.238;27.864;2022-08-07T02:16:05;19.90;;;17.60;;
9852;SDS011;4965;43.238;27.864;2022-08-07T02:18:35;24.15;;;17.98;;
9852;SDS011;4965;43.238;27.864;2022-08-07T02:21:04;22.70;;;18.92;;
9852;SDS011;4965;43.238;27.864;2022-08-07T02:23:32;24.88;;;19.77;;
9852;SDS011;4965;43.238;27.864;2022-08-07T02:26:02;23.90;;;19.27;;
9852;SDS011;4965;43.238;27.864;2022-08-07T02:28:31;27.05;;;20.63;;
9852;SDS011;4965;43.238;27.864;2022-08-07T02:31:00;22.52;;;20.13;;
9852;SDS011;4965;43.238;27.864;2022-08-07T02:33:29;22.08;;;19.63;;
9852;SDS011;4965;43.238;27.864;2022-08-07T02:35:57;24.90;;;18.95;;
9852;SDS011;4965;43.238;27.864;2022-08-07T02:38:31;26.83;;;20.98;;
9852;SDS011;4965;43.238;27.864;2022-08-07T02:41:02;21.83;;;18.85;;
9852;SDS011;4965;43.238;27.864;2022-08-07T02:43:41;24.02;;;18.98;;
9852;SDS011;4965;43.238;27.864;2022-08-07T02:46:08;21.10;;;17.85;;
9852;SDS011;4965;43.238;27.864;2022-08-07T02:48:37;22.90;;;19.08;;
9852;SDS011;4965;43.238;27.864;2022-08-07T02:51:06;26.20;;;19.63;;
9852;SDS011;4965;43.238;27.864;2022-08-07T02:53:37;28.70;;;18.80;;
9852;SDS011;4965;43.238;27.864;2022-08-07T02:56:06;22.52;;;19.38;;
9852;SDS011;4965;43.238;27.864;2022-08-07T02:58:36;22.73;;;18.42;;
9852;SDS011;4965;43.238;27.864;2022-08-07T03:01:07;22.50;;;18.70;;
9852;SDS011;4965;43.238;27.864;2022-08-07T03:03:36;26.08;;;20.35;;
9852;SDS011;4965;43.238;27.864;2022-08-07T03:06:05;21.10;;;17.05;;
9852;SDS011;4965;43.238;27.864;2022-08-07T03:08:32;21.15;;;17.17;;
9852;SDS011;4965;43.238;27.864;2022-08-07T03:11:00;22.45;;;18.73;;
9852;SDS011;4965;43.238;27.864;2022-08-07T03:13:28;24.85;;;18.85;;
9852;SDS011;4965;43.238;27.864;2022-08-07T03:15:55;23.33;;;19.75;;
9852;SDS011;4965;43.238;27.864;2022-08-07T03:18:23;23.58;;;19.65;;
9852;SDS011;4965;43.238;27.864;2022-08-07T03:20:51;27.25;;;22.77;;
9852;SDS011;4965;43.238;27.864;2022-08-07T03:23:18;25.17;;;20.58;;
9852;SDS011;4965;43.238;27.864;2022-08-07T03:25:46;24.85;;;19.52;;
9852;SDS011;4965;43.238;27.864;2022-08-07T03:28:16;22.95;;;19.27;;
9852;SDS011;4965;43.238;27.864;2022-08-07T03:30:45;22.95;;;18.65;;
9852;SDS011;4965;43.238;27.864;2022-08-07T03:33:13;27.75;;;18.92;;
9852;SDS011;4965;43.238;27.864;2022-08-07T03:35:43;19.58;;;17.42;;
9852;SDS011;4965;43.238;27.864;2022-08-07T03:38:12;21.60;;;16.92;;
9852;SDS011;4965;43.238;27.864;2022-08-07T03:40:40;18.58;;;16.10;;
9852;SDS011;4965;43.238;27.864;2022-08-07T03:43:08;18.05;;;16.15;;
9852;SDS011;4965;43.238;27.864;2022-08-07T03:45:36;24.33;;;17.45;;
9852;SDS011;4965;43.238;27.864;2022-08-07T03:48:05;17.13;;;15.32;;
9852;SDS011;4965;43.238;27.864;2022-08-07T03:50:32;17.63;;;15.20;;
9852;SDS011;4965;43.238;27.864;2022-08-07T03:53:02;16.00;;;14.20;;
9852;SDS011;4965;43.238;27.864;2022-08-07T03:55:29;16.15;;;13.23;;
9852;SDS011;4965;43.238;27.864;2022-08-07T03:57:57;14.38;;;12.90;;
9852;SDS011;4965;43.238;27.864;2022-08-07T04:00:24;14.25;;;12.85;;
9852;SDS011;4965;43.238;27.864;2022-08-07T04:02:52;14.25;;;12.77;;
9852;SDS011;4965;43.238;27.864;2022-08-07T04:05:19;17.88;;;12.00;;
9852;SDS011;4965;43.238;27.864;2022-08-07T04:07:46;13.50;;;12.15;;
9852;SDS011;4965;43.238;27.864;2022-08-07T04:10:15;12.50;;;10.63;;
9852;SDS011;4965;43.238;27.864;2022-08-07T04:12:42;15.57;;;10.80;;
9852;SDS011;4965;43.238;27.864;2022-08-07T04:15:09;11.88;;;10.68;;
9852;SDS011;4965;43.238;27.864;2022-08-07T04:17:38;12.43;;;10.57;;
9852;SDS011;4965;43.238;27.864;2022-08-07T04:20:08;11.07;;;9.57;;
9852;SDS011;4965;43.238;27.864;2022-08-07T04:22:37;10.13;;;9.20;;
9852;SDS011;4965;43.238;27.864;2022-08-07T04:25:05;10.95;;;9.55;;
9852;SDS011;4965;43.238;27.864;2022-08-07T04:27:35;11.02;;;9.85;;
9852;SDS011;4965;43.238;27.864;2022-08-07T04:30:02;15.68;;;9.88;;
9852;SDS011;4965;43.238;27.864;2022-08-07T04:32:30;16.05;;;8.88;;
9852;SDS011;4965;43.238;27.864;2022-08-07T04:34:58;10.73;;;9.63;;
9852;SDS011;4965;43.238;27.864;2022-08-07T04:37:26;9.68;;;8.77;;
9852;SDS011;4965;43.238;27.864;2022-08-07T04:39:53;9.77;;;8.75;;
9852;SDS011;4965;43.238;27.864;2022-08-07T04:42:20;9.48;;;8.57;;
9852;SDS011;4965;43.238;27.864;2022-08-07T04:44:53;11.40;;;7.70;;
9852;SDS011;4965;43.238;27.864;2022-08-07T04:47:21;9.15;;;8.25;;
9852;SDS011;4965;43.238;27.864;2022-08-07T04:49:56;10.05;;;7.45;;
9852;SDS011;4965;43.238;27.864;2022-08-07T04:52:30;7.88;;;6.65;;
9852;SDS011;4965;43.238;27.864;2022-08-07T04:55:05;9.00;;;7.63;;
9852;SDS011;4965;43.238;27.864;2022-08-07T04:57:40;11.02;;;7.32;;
9852;SDS011;4965;43.238;27.864;2022-08-07T05:00:15;10.02;;;7.78;;
9852;SDS011;4965;43.238;27.864;2022-08-07T05:02:47;7.88;;;7.07;;
9852;SDS011;4965;43.238;27.864;2022-08-07T05:05:20;9.57;;;7.60;;
9852;SDS011;4965;43.238;27.864;2022-08-07T05:07:52;8.45;;;6.35;;
9852;SDS011;4965;43.238;27.864;2022-08-07T05:10:23;8.63;;;6.72;;
9852;SDS011;4965;43.238;27.864;2022-08-07T05:12:56;8.55;;;7.05;;
9852;SDS011;4965;43.238;27.864;2022-08-07T05:15:28;7.65;;;6.85;;
9852;SDS011;4965;43.238;27.864;2022-08-07T05:18:02;7.15;;;6.45;;
9852;SDS011;4965;43.238;27.864;2022-08-07T05:20:39;7.57;;;6.80;;
9852;SDS011;4965;43.238;27.864;2022-08-07T05:23:10;7.90;;;6.78;;
9852;SDS011;4965;43.238;27.864;2022-08-07T05:25:41;7.63;;;7.00;;
9852;SDS011;4965;43.238;27.864;2022-08-07T05:28:09;7.20;;;6.50;;
9852;SDS011;4965;43.238;27.864;2022-08-07T05:30:41;8.30;;;6.40;;
9852;SDS011;4965;43.238;27.864;2022-08-07T05:33:09;6.97;;;6.28;;
9852;SDS011;4965;43.238;27.864;2022-08-07T05:35:39;8.27;;;6.40;;
9852;SDS011;4965;43.238;27.864;2022-08-07T05:38:08;8.75;;;6.47;;
9852;SDS011;4965;43.238;27.864;2022-08-07T05:40:36;7.53;;;6.20;;
9852;SDS011;4965;43.238;27.864;2022-08-07T05:43:04;7.85;;;6.88;;
9852;SDS011;4965;43.238;27.864;2022-08-07T05:45:31;6.75;;;5.90;;
9852;SDS011;4965;43.238;27.864;2022-08-07T05:48:00;11.02;;;6.47;;
9852;SDS011;4965;43.238;27.864;2022-08-07T05:50:29;7.15;;;6.45;;
9852;SDS011;4965;43.238;27.864;2022-08-07T05:52:58;8.23;;;6.40;;
9852;SDS011;4965;43.238;27.864;2022-08-07T05:55:25;7.82;;;6.72;;
9852;SDS011;4965;43.238;27.864;2022-08-07T05:57:52;8.88;;;7.30;;
9852;SDS011;4965;43.238;27.864;2022-08-07T06:00:20;8.38;;;7.53;;
9852;SDS011;4965;43.238;27.864;2022-08-07T06:02:49;7.97;;;7.30;;
9852;SDS011;4965;43.238;27.864;2022-08-07T06:05:26;8.05;;;7.25;;
9852;SDS011;4965;43.238;27.864;2022-08-07T06:07:56;8.77;;;6.60;;
9852;SDS011;4965;43.238;27.864;2022-08-07T06:10:24;12.82;;;7.47;;
9852;SDS011;4965;43.238;27.864;2022-08-07T06:12:52;12.57;;;7.60;;
9852;SDS011;4965;43.238;27.864;2022-08-07T06:15:20;7.72;;;6.75;;
9852;SDS011;4965;43.238;27.864;2022-08-07T06:17:47;7.70;;;6.57;;
9852;SDS011;4965;43.238;27.864;2022-08-07T06:20:14;10.23;;;7.18;;
9852;SDS011;4965;43.238;27.864;2022-08-07T06:22:43;8.30;;;6.72;;
9852;SDS011;4965;43.238;27.864;2022-08-07T06:25:13;12.98;;;7.57;;
9852;SDS011;4965;43.238;27.864;2022-08-07T06:27:40;17.88;;;7.03;;
9852;SDS011;4965;43.238;27.864;2022-08-07T06:30:07;8.13;;;6.68;;
9852;SDS011;4965;43.238;27.864;2022-08-07T06:32:35;11.27;;;7.20;;
9852;SDS011;4965;43.238;27.864;2022-08-07T06:35:02;9.00;;;6.70;;
9852;SDS011;4965;43.238;27.864;2022-08-07T06:37:29;8.23;;;7.18;;
9852;SDS011;4965;43.238;27.864;2022-08-07T06:39:58;9.13;;;6.85;;
9852;SDS011;4965;43.238;27.864;2022-08-07T06:42:25;9.50;;;7.45;;
9852;SDS011;4965;43.238;27.864;2022-08-07T06:44:54;14.45;;;7.30;;
9852;SDS011;4965;43.238;27.864;2022-08-07T06:47:22;8.70;;;6.63;;
9852;SDS011;4965;43.238;27.864;2022-08-07T06:49:49;9.15;;;6.10;;
9852;SDS011;4965;43.238;27.864;2022-08-07T06:52:16;15.65;;;6.15;;
9852;SDS011;4965;43.238;27.864;2022-08-07T06:54:44;16.58;;;5.72;;
9852;SDS011;4965;43.238;27.864;2022-08-07T06:57:16;8.45;;;5.53;;
9852;SDS011;4965;43.238;27.864;2022-08-07T06:59:46;8.93;;;5.90;;
9852;SDS011;4965;43.238;27.864;2022-08-07T07:02:14;13.05;;;6.43;;
9852;SDS011;4965;43.238;27.864;2022-08-07T07:04:44;12.77;;;6.20;;
9852;SDS011;4965;43.238;27.864;2022-08-07T07:07:12;7.10;;;6.40;;
9852;SDS011;4965;43.238;27.864;2022-08-07T07:09:43;12.18;;;6.35;;
9852;SDS011;4965;43.238;27.864;2022-08-07T07:12:21;8.40;;;6.30;;
9852;SDS011;4965;43.238;27.864;2022-08-07T07:14:55;11.32;;;6.72;;
9852;SDS011;4965;43.238;27.864;2022-08-07T07:17:29;7.22;;;6.10;;
9852;SDS011;4965;43.238;27.864;2022-08-07T07:20:02;10.85;;;6.18;;
9852;SDS011;4965;43.238;27.864;2022-08-07T07:22:32;8.77;;;5.97;;
9852;SDS011;4965;43.238;27.864;2022-08-07T07:25:00;12.02;;;6.03;;
9852;SDS011;4965;43.238;27.864;2022-08-07T07:27:29;13.05;;;6.10;;
9852;SDS011;4965;43.238;27.864;2022-08-07T07:30:01;9.27;;;5.68;;
9852;SDS011;4965;43.238;27.864;2022-08-07T07:32:30;12.32;;;6.45;;
9852;SDS011;4965;43.238;27.864;2022-08-07T07:35:03;7.47;;;6.10;;
9852;SDS011;4965;43.238;27.864;2022-08-07T07:37:31;9.88;;;6.35;;
9852;SDS011;4965;43.238;27.864;2022-08-07T07:40:00;10.98;;;6.28;;
9852;SDS011;4965;43.238;27.864;2022-08-07T07:42:32;10.02;;;5.82;;
9852;SDS011;4965;43.238;27.864;2022-08-07T07:45:00;7.30;;;5.88;;
9852;SDS011;4965;43.238;27.864;2022-08-07T07:47:29;6.38;;;4.88;;
9852;SDS011;4965;43.238;27.864;2022-08-07T07:49:59;14.05;;;5.35;;
9852;SDS011;4965;43.238;27.864;2022-08-07T07:52:28;8.57;;;6.05;;
9852;SDS011;4965;43.238;27.864;2022-08-07T07:54:55;11.48;;;6.03;;
9852;SDS011;4965;43.238;27.864;2022-08-07T07:57:23;13.02;;;5.68;;
9852;SDS011;4965;43.238;27.864;2022-08-07T07:59:52;7.10;;;5.47;;
9852;SDS011;4965;43.238;27.864;2022-08-07T08:02:20;8.68;;;5.45;;
9852;SDS011;4965;43.238;27.864;2022-08-07T08:04:50;11.45;;;5.75;;
9852;SDS011;4965;43.238;27.864;2022-08-07T08:07:19;11.95;;;6.03;;
9852;SDS011;4965;43.238;27.864;2022-08-07T08:09:45;12.82;;;5.35;;
9852;SDS011;4965;43.238;27.864;2022-08-07T08:12:14;9.55;;;5.55;;
9852;SDS011;4965;43.238;27.864;2022-08-07T08:14:42;12.15;;;6.18;;
9852;SDS011;4965;43.238;27.864;2022-08-07T08:17:11;14.25;;;6.30;;
9852;SDS011;4965;43.238;27.864;2022-08-07T08:19:40;8.82;;;5.30;;
9852;SDS011;4965;43.238;27.864;2022-08-07T08:22:09;10.13;;;5.18;;
9852;SDS011;4965;43.238;27.864;2022-08-07T08:24:55;11.10;;;5.18;;
9852;SDS011;4965;43.238;27.864;2022-08-07T08:27:41;14.88;;;5.60;;
9852;SDS011;4965;43.238;27.864;2022-08-07T08:30:10;11.25;;;5.78;;
9852;SDS011;4965;43.238;27.864;2022-08-07T08:32:40;9.60;;;5.70;;
9852;SDS011;4965;43.238;27.864;2022-08-07T08:35:11;19.23;;;5.45;;
9852;SDS011;4965;43.238;27.864;2022-08-07T08:37:42;18.88;;;5.38;;
9852;SDS011;4965;43.238;27.864;2022-08-07T08:40:13;7.05;;;5.00;;
9852;SDS011;4965;43.238;27.864;2022-08-07T08:42:53;5.78;;;5.18;;
9852;SDS011;4965;43.238;27.864;2022-08-07T08:45:31;8.68;;;5.43;;
9852;SDS011;4965;43.238;27.864;2022-08-07T08:48:05;9.68;;;5.00;;
9852;SDS011;4965;43.238;27.864;2022-08-07T08:50:39;14.57;;;5.63;;
9852;SDS011;4965;43.238;27.864;2022-08-07T08:53:15;10.80;;;5.55;;
9852;SDS011;4965;43.238;27.864;2022-08-07T08:55:50;16.55;;;5.38;;
9852;SDS011;4965;43.238;27.864;2022-08-07T08:58:23;5.40;;;4.70;;
9852;SDS011;4965;43.238;27.864;2022-08-07T09:01:02;14.18;;;5.55;;
9852;SDS011;4965;43.238;27.864;2022-08-07T09:03:37;14.32;;;5.43;;
9852;SDS011;4965;43.238;27.864;2022-08-07T09:06:10;11.23;;;4.10;;
9852;SDS011;4965;43.238;27.864;2022-08-07T09:08:49;9.75;;;5.13;;
9852;SDS011;4965;43.238;27.864;2022-08-07T09:11:23;10.25;;;4.57;;
9852;SDS011;4965;43.238;27.864;2022-08-07T09:14:02;7.15;;;4.95;;
9852;SDS011;4965;43.238;27.864;2022-08-07T09:16:40;8.40;;;4.25;;
9852;SDS011;4965;43.238;27.864;2022-08-07T09:19:23;13.23;;;4.97;;
9852;SDS011;4965;43.238;27.864;2022-08-07T09:22:02;8.40;;;4.70;;
9852;SDS011;4965;43.238;27.864;2022-08-07T09:24:41;12.52;;;4.75;;
9852;SDS011;4965;43.238;27.864;2022-08-07T09:27:18;9.43;;;4.65;;
9852;SDS011;4965;43.238;27.864;2022-08-07T09:29:55;6.95;;;4.45;;
9852;SDS011;4965;43.238;27.864;2022-08-07T09:32:30;9.93;;;4.75;;
9852;SDS011;4965;43.238;27.864;2022-08-07T09:35:17;16.85;;;4.43;;
9852;SDS011;4965;43.238;27.864;2022-08-07T09:37:53;10.02;;;4.20;;
9852;SDS011;4965;43.238;27.864;2022-08-07T09:40:26;9.15;;;3.80;;
9852;SDS011;4965;43.238;27.864;2022-08-07T09:42:59;6.95;;;4.10;;
9852;SDS011;4965;43.238;27.864;2022-08-07T09:45:39;11.57;;;4.38;;
9852;SDS011;4965;43.238;27.864;2022-08-07T09:48:16;11.27;;;4.30;;
9852;SDS011;4965;43.238;27.864;2022-08-07T09:50:58;6.63;;;4.20;;
9852;SDS011;4965;43.238;27.864;2022-08-07T09:53:33;9.50;;;4.43;;
9852;SDS011;4965;43.238;27.864;2022-08-07T09:56:11;13.77;;;4.32;;
9852;SDS011;4965;43.238;27.864;2022-08-07T09:58:59;7.90;;;4.55;;
9852;SDS011;4965;43.238;27.864;2022-08-07T10:01:40;9.45;;;4.05;;
9852;SDS011;4965;43.238;27.864;2022-08-07T10:04:27;9.65;;;4.90;;
9852;SDS011;4965;43.238;27.864;2022-08-07T10:07:17;7.50;;;4.32;;
9852;SDS011;4965;43.238;27.864;2022-08-07T10:10:02;6.25;;;4.53;;
9852;SDS011;4965;43.238;27.864;2022-08-07T10:12:54;10.55;;;4.97;;
9852;SDS011;4965;43.238;27.864;2022-08-07T10:15:48;12.27;;;4.50;;
9852;SDS011;4965;43.238;27.864;2022-08-07T10:18:40;9.38;;;4.53;;
9852;SDS011;4965;43.238;27.864;2022-08-07T10:21:40;12.60;;;3.85;;
9852;SDS011;4965;43.238;27.864;2022-08-07T10:24:21;15.40;;;4.82;;
9852;SDS011;4965;43.238;27.864;2022-08-07T10:26:58;7.10;;;4.10;;
9852;SDS011;4965;43.238;27.864;2022-08-07T10:35:46;6.88;;;3.90;;
9852;SDS011;4965;43.238;27.864;2022-08-07T10:38:35;14.32;;;3.88;;
9852;SDS011;4965;43.238;27.864;2022-08-07T10:41:14;7.60;;;3.28;;
9852;SDS011;4965;43.238;27.864;2022-08-07T10:43:47;9.20;;;3.67;;
9852;SDS011;4965;43.238;27.864;2022-08-07T10:46:24;4.72;;;3.28;;
9852;SDS011;4965;43.238;27.864;2022-08-07T10:48:56;8.77;;;3.42;;
9852;SDS011;4965;43.238;27.864;2022-08-07T10:51:38;6.78;;;3.47;;
9852;SDS011;4965;43.238;27.864;2022-08-07T10:54:12;11.60;;;3.53;;
9852;SDS011;4965;43.238;27.864;2022-08-07T10:56:48;3.40;;;3.00;;
9852;SDS011;4965;43.238;27.864;2022-08-07T10:59:32;5.68;;;3.30;;
9852;SDS011;4965;43.238;27.864;2022-08-07T11:02:09;7.63;;;3.30;;
9852;SDS011;4965;43.238;27.864;2022-08-07T11:04:51;5.22;;;2.88;;
9852;SDS011;4965;43.238;27.864;2022-08-07T11:07:41;12.50;;;3.35;;
9852;SDS011;4965;43.238;27.864;2022-08-07T11:10:16;6.05;;;3.25;;
9852;SDS011;4965;43.238;27.864;2022-08-07T11:12:53;15.75;;;3.75;;
9852;SDS011;4965;43.238;27.864;2022-08-07T11:15:26;6.60;;;3.08;;
9852;SDS011;4965;43.238;27.864;2022-08-07T11:17:58;3.28;;;2.92;;
9852;SDS011;4965;43.238;27.864;2022-08-07T11:20:35;3.40;;;2.70;;
9852;SDS011;4965;43.238;27.864;2022-08-07T11:23:09;7.57;;;3.30;;
9852;SDS011;4965;43.238;27.864;2022-08-07T11:25:43;7.82;;;2.97;;
9852;SDS011;4965;43.238;27.864;2022-08-07T11:28:18;8.43;;;3.15;;
9852;SDS011;4965;43.238;27.864;2022-08-07T11:30:50;4.68;;;3.08;;
9852;SDS011;4965;43.238;27.864;2022-08-07T11:33:30;14.82;;;4.32;;
9852;SDS011;4965;43.238;27.864;2022-08-07T11:36:10;11.85;;;3.00;;
9852;SDS011;4965;43.238;27.864;2022-08-07T11:38:46;5.13;;;2.70;;
9852;SDS011;4965;43.238;27.864;2022-08-07T11:41:21;4.60;;;2.88;;
9852;SDS011;4965;43.238;27.864;2022-08-07T11:43:59;5.55;;;2.47;;
9852;SDS011;4965;43.238;27.864;2022-08-07T11:46:37;3.42;;;3.08;;
9852;SDS011;4965;43.238;27.864;2022-08-07T11:49:24;9.07;;;3.08;;
9852;SDS011;4965;43.238;27.864;2022-08-07T11:52:12;10.07;;;3.15;;
9852;SDS011;4965;43.238;27.864;2022-08-07T11:54:55;12.23;;;3.05;;
9852;SDS011;4965;43.238;27.864;2022-08-07T11:57:31;4.10;;;2.70;;
9852;SDS011;4965;43.238;27.864;2022-08-07T12:00:07;7.30;;;2.80;;
9852;SDS011;4965;43.238;27.864;2022-08-07T12:02:45;6.18;;;2.83;;
9852;SDS011;4965;43.238;27.864;2022-08-07T12:05:25;3.97;;;2.88;;
9852;SDS011;4965;43.238;27.864;2022-08-07T12:07:56;7.82;;;2.80;;
9852;SDS011;4965;43.238;27.864;2022-08-07T12:10:28;10.13;;;2.63;;
9852;SDS011;4965;43.238;27.864;2022-08-07T12:13:02;10.52;;;3.05;;
9852;SDS011;4965;43.238;27.864;2022-08-07T12:15:36;9.25;;;2.78;;
9852;SDS011;4965;43.238;27.864;2022-08-07T12:18:07;4.03;;;2.70;;
9852;SDS011;4965;43.238;27.864;2022-08-07T12:20:44;4.65;;;2.78;;
9852;SDS011;4965;43.238;27.864;2022-08-07T12:23:16;5.50;;;2.20;;
9852;SDS011;4965;43.238;27.864;2022-08-07T12:25:54;9.55;;;2.75;;
9852;SDS011;4965;43.238;27.864;2022-08-07T12:28:29;6.43;;;2.80;;
9852;SDS011;4965;43.238;27.864;2022-08-07T12:31:04;3.58;;;2.50;;
9852;SDS011;4965;43.238;27.864;2022-08-07T12:33:36;3.35;;;2.42;;
9852;SDS011;4965;43.238;27.864;2022-08-07T12:36:06;4.15;;;2.20;;
9852;SDS011;4965;43.238;27.864;2022-08-07T12:38:35;20.63;;;2.75;;
9852;SDS011;4965;43.238;27.864;2022-08-07T12:41:12;9.57;;;2.75;;
9852;SDS011;4965;43.238;27.864;2022-08-07T12:43:41;14.13;;;2.92;;
9852;SDS011;4965;43.238;27.864;2022-08-07T12:46:18;6.82;;;2.35;;
9852;SDS011;4965;43.238;27.864;2022-08-07T12:48:54;5.20;;;2.25;;
9852;SDS011;4965;43.238;27.864;2022-08-07T12:51:27;5.78;;;2.40;;
9852;SDS011;4965;43.238;27.864;2022-08-07T12:54:03;7.30;;;2.58;;
9852;SDS011;4965;43.238;27.864;2022-08-07T12:56:38;5.25;;;2.33;;
9852;SDS011;4965;43.238;27.864;2022-08-07T12:59:10;6.72;;;2.58;;
9852;SDS011;4965;43.238;27.864;2022-08-07T13:01:49;14.18;;;2.20;;
9852;SDS011;4965;43.238;27.864;2022-08-07T13:04:27;5.35;;;2.33;;
9852;SDS011;4965;43.238;27.864;2022-08-07T13:07:16;4.53;;;2.03;;
9852;SDS011;4965;43.238;27.864;2022-08-07T13:10:02;12.75;;;2.72;;
9852;SDS011;4965;43.238;27.864;2022-08-07T13:12:42;13.68;;;2.15;;
9852;SDS011;4965;43.238;27.864;2022-08-07T13:15:25;10.63;;;2.60;;
9852;SDS011;4965;43.238;27.864;2022-08-07T13:18:08;5.55;;;2.25;;
9852;SDS011;4965;43.238;27.864;2022-08-07T13:20:44;6.55;;;2.30;;
9852;SDS011;4965;43.238;27.864;2022-08-07T13:23:18;11.20;;;2.78;;
9852;SDS011;4965;43.238;27.864;2022-08-07T13:25:52;11.15;;;3.40;;
9852;SDS011;4965;43.238;27.864;2022-08-07T13:28:22;4.88;;;3.05;;
9852;SDS011;4965;43.238;27.864;2022-08-07T13:30:57;4.43;;;2.28;;
9852;SDS011;4965;43.238;27.864;2022-08-07T13:33:32;10.88;;;2.95;;
9852;SDS011;4965;43.238;27.864;2022-08-07T13:36:06;7.38;;;2.80;;
9852;SDS011;4965;43.238;27.864;2022-08-07T13:38:37;7.72;;;3.03;;
9852;SDS011;4965;43.238;27.864;2022-08-07T13:41:11;11.38;;;2.67;;
9852;SDS011;4965;43.238;27.864;2022-08-07T13:43:46;4.15;;;2.58;;
9852;SDS011;4965;43.238;27.864;2022-08-07T13:46:15;4.65;;;3.25;;
9852;SDS011;4965;43.238;27.864;2022-08-07T13:48:47;4.20;;;2.67;;
9852;SDS011;4965;43.238;27.864;2022-08-07T13:51:16;4.78;;;2.85;;
9852;SDS011;4965;43.238;27.864;2022-08-07T13:53:48;6.93;;;3.03;;
9852;SDS011;4965;43.238;27.864;2022-08-07T13:56:19;7.78;;;2.85;;
9852;SDS011;4965;43.238;27.864;2022-08-07T13:58:50;5.80;;;3.08;;
9852;SDS011;4965;43.238;27.864;2022-08-07T14:01:30;9.88;;;2.97;;
9852;SDS011;4965;43.238;27.864;2022-08-07T14:04:02;7.93;;;3.10;;
9852;SDS011;4965;43.238;27.864;2022-08-07T14:06:34;20.23;;;3.03;;
9852;SDS011;4965;43.238;27.864;2022-08-07T14:09:03;4.68;;;3.30;;
9852;SDS011;4965;43.238;27.864;2022-08-07T14:11:32;7.38;;;2.80;;
9852;SDS011;4965;43.238;27.864;2022-08-07T14:14:03;5.15;;;2.60;;
9852;SDS011;4965;43.238;27.864;2022-08-07T14:16:34;6.40;;;2.95;;
9852;SDS011;4965;43.238;27.864;2022-08-07T14:19:10;16.95;;;3.15;;
9852;SDS011;4965;43.238;27.864;2022-08-07T14:21:43;7.72;;;2.88;;
9852;SDS011;4965;43.238;27.864;2022-08-07T14:24:14;5.38;;;2.92;;
9852;SDS011;4965;43.238;27.864;2022-08-07T14:26:53;12.45;;;3.10;;
9852;SDS011;4965;43.238;27.864;2022-08-07T14:29:24;4.95;;;2.85;;
9852;SDS011;4965;43.238;27.864;2022-08-07T14:31:56;5.07;;;2.70;;
9852;SDS011;4965;43.238;27.864;2022-08-07T14:34:27;8.07;;;2.90;;
9852;SDS011;4965;43.238;27.864;2022-08-07T14:36:58;8.70;;;2.88;;
9852;SDS011;4965;43.238;27.864;2022-08-07T14:39:26;3.72;;;2.75;;
9852;SDS011;4965;43.238;27.864;2022-08-07T14:41:54;15.80;;;3.05;;
9852;SDS011;4965;43.238;27.864;2022-08-07T14:44:25;4.38;;;2.67;;
9852;SDS011;4965;43.238;27.864;2022-08-07T14:46:53;10.45;;;2.97;;
9852;SDS011;4965;43.238;27.864;2022-08-07T14:49:28;2.63;;;2.42;;
9852;SDS011;4965;43.238;27.864;2022-08-07T14:52:01;7.00;;;2.90;;
9852;SDS011;4965;43.238;27.864;2022-08-07T14:54:30;5.90;;;3.15;;
9852;SDS011;4965;43.238;27.864;2022-08-07T14:56:59;7.22;;;2.80;;
9852;SDS011;4965;43.238;27.864;2022-08-07T14:59:28;4.40;;;2.85;;
9852;SDS011;4965;43.238;27.864;2022-08-07T15:02:07;4.50;;;2.58;;
9852;SDS011;4965;43.238;27.864;2022-08-07T15:04:39;5.28;;;2.42;;
9852;SDS011;4965;43.238;27.864;2022-08-07T15:07:08;5.18;;;2.85;;
9852;SDS011;4965;43.238;27.864;2022-08-07T15:09:37;6.15;;;2.58;;
9852;SDS011;4965;43.238;27.864;2022-08-07T15:12:08;5.20;;;2.75;;
9852;SDS011;4965;43.238;27.864;2022-08-07T15:14:36;5.70;;;2.60;;
9852;SDS011;4965;43.238;27.864;2022-08-07T15:17:13;4.65;;;2.58;;
9852;SDS011;4965;43.238;27.864;2022-08-07T15:19:47;6.35;;;2.63;;
9852;SDS011;4965;43.238;27.864;2022-08-07T15:22:17;12.40;;;2.70;;
9852;SDS011;4965;43.238;27.864;2022-08-07T15:24:46;7.88;;;2.60;;
9852;SDS011;4965;43.238;27.864;2022-08-07T15:27:16;9.18;;;2.42;;